Highland Springs, Virginia
Current Conditions -  °F | °C
As of 1:54 PM on Monday 20 Oct 2014 (Local Time) from KRIC Reporting Station
Broken Clouds Broken Clouds  
Wind Chill: 67°   Ceiling: 30000
Heat Index: 67°   Visibility: 10mi
Dew Point: 40°   Wind: 14mph
Humidity: 37%   Direction: 180°S
Pressure: 30.03"   Gusts: NA
Location:  37.55°N, 77.33°W
Report Text: KRIC 201754Z 18012KT 10SM BKN300 19/04 A3003 RMK AO2 SLP174 T01940044 10200 20061 58035
Loading
Personal Weather Stations






























Interactive Weather Map
Tropical Storm Tracking
New forecast layout! Learn more

10-Day Weather Forecast

Advertisements
Track Severe Weather on mobile